createdAt,value
2019-02-22T00:01:10.969Z,8.58
2019-02-22T00:06:35.606Z,8.57
2019-02-22T00:12:00.301Z,8.56
2019-02-22T00:17:24.219Z,8.53
2019-02-22T00:22:48.271Z,8.53
2019-02-22T00:28:13.196Z,8.48
2019-02-22T00:33:37.334Z,8.49
2019-02-22T00:39:01.836Z,8.46
2019-02-22T00:44:27.158Z,8.44
2019-02-22T00:49:51.560Z,8.41
2019-02-22T00:55:15.360Z,8.39
2019-02-22T01:00:39.712Z,8.36
2019-02-22T01:06:04.215Z,8.35
2019-02-22T01:11:28.337Z,8.33
2019-02-22T01:16:52.940Z,8.30
2019-02-22T01:22:17.329Z,8.27
2019-02-22T01:27:42.395Z,8.25
2019-02-22T01:33:06.931Z,8.23
2019-02-22T01:38:30.609Z,8.19
2019-02-22T01:43:54.847Z,8.14
2019-02-22T01:49:19.857Z,8.12
2019-02-22T01:54:44.555Z,8.07
2019-02-22T02:00:10.812Z,8.04
2019-02-22T02:05:35.314Z,8.03
2019-02-22T02:11:00.023Z,8.02
2019-02-22T02:16:24.577Z,7.98
2019-02-22T02:21:49.047Z,8.01
2019-02-22T02:27:12.995Z,7.97
2019-02-22T02:32:37.502Z,7.96
2019-02-22T02:38:02.205Z,7.94
2019-02-22T02:43:26.644Z,7.92
2019-02-22T02:48:51.107Z,7.89
2019-02-22T02:54:15.626Z,7.87
2019-02-22T02:59:40.304Z,7.83
2019-02-22T03:05:05.234Z,7.82
2019-02-22T03:10:31.540Z,7.82
2019-02-22T03:15:56.152Z,7.82
2019-02-22T03:21:20.965Z,7.80
2019-02-22T03:26:45.110Z,7.79
2019-02-22T03:32:09.173Z,7.75
2019-02-22T03:37:33.648Z,7.73
2019-02-22T03:42:57.242Z,7.55
2019-02-22T03:48:22.310Z,7.37
2019-02-22T03:54:05.240Z,7.39
2019-02-22T03:59:29.064Z,7.42
2019-02-22T04:04:53.707Z,7.24
2019-02-22T04:10:17.286Z,7.23
2019-02-22T04:15:41.972Z,7.14
2019-02-22T04:21:06.853Z,7.02
2019-02-22T04:26:31.160Z,6.81
2019-02-22T04:31:54.763Z,6.63
2019-02-22T04:37:18.502Z,6.50
2019-02-22T04:42:42.252Z,6.34
2019-02-22T04:48:06.147Z,6.08
2019-02-22T04:53:30.772Z,5.92
2019-02-22T04:58:57.176Z,5.67
2019-02-22T05:04:20.781Z,5.35
2019-02-22T05:09:44.956Z,5.11
2019-02-22T05:15:12.956Z,4.94
2019-02-22T05:20:35.270Z,4.93
2019-02-22T05:25:59.181Z,4.82
2019-02-22T05:31:24.372Z,4.75
2019-02-22T05:36:48.035Z,4.66
2019-02-22T05:42:22.269Z,4.45
2019-02-22T05:47:37.368Z,4.32
2019-02-22T05:53:02.235Z,4.21
2019-02-22T05:58:27.032Z,4.16
2019-02-22T06:03:51.479Z,4.18
2019-02-22T06:09:15.472Z,4.10
2019-02-22T06:14:40.260Z,4.10
2019-02-22T06:20:04.309Z,4.11
2019-02-22T06:25:28.638Z,4.12
2019-02-22T06:30:52.342Z,4.17
2019-02-22T06:36:16.575Z,4.13
2019-02-22T06:41:41.980Z,4.01
2019-02-22T06:47:05.676Z,3.65
2019-02-22T06:52:29.866Z,3.38
2019-02-22T06:57:53.670Z,3.30
2019-02-22T07:03:17.499Z,3.12
2019-02-22T07:08:41.939Z,3.12
2019-02-22T07:14:05.710Z,3.13
2019-02-22T07:19:30.386Z,3.09
2019-02-22T07:24:54.339Z,3.16
2019-02-22T07:30:19.086Z,2.89
2019-02-22T07:35:43.735Z,2.86
2019-02-22T07:41:08.758Z,2.82
2019-02-22T07:46:32.830Z,2.91
2019-02-22T07:51:56.467Z,2.56
2019-02-22T07:57:20.715Z,2.56
2019-02-22T08:02:45.363Z,2.44
2019-02-22T08:08:10.398Z,2.19
2019-02-22T08:13:34.814Z,2.20
2019-02-22T08:19:01.801Z,2.33
2019-02-22T08:24:25.906Z,2.25
2019-02-22T08:29:50.923Z,2.38
2019-02-22T08:35:16.685Z,2.37
2019-02-22T08:40:41.153Z,2.59
2019-02-22T08:46:05.037Z,2.60
2019-02-22T08:51:29.272Z,2.14
2019-02-22T08:56:53.203Z,2.15
2019-02-22T09:02:17.116Z,1.94
2019-02-22T09:07:42.071Z,2.23
2019-02-22T09:13:06.762Z,2.61
2019-02-22T09:18:31.209Z,2.67
2019-02-22T09:23:58.335Z,2.51
2019-02-22T09:29:22.917Z,3.19
2019-02-22T09:34:47.578Z,3.72
2019-02-22T09:40:11.419Z,4.75
2019-02-22T09:45:36.545Z,4.34
2019-02-22T09:51:01.413Z,4.92
2019-02-22T09:56:25.399Z,5.89
2019-02-22T10:01:50.073Z,5.69
2019-02-22T10:07:13.909Z,5.43
2019-02-22T10:12:38.874Z,5.64
2019-02-22T10:18:03.325Z,5.55
2019-02-22T10:23:27.776Z,6.47
2019-02-22T10:28:52.511Z,5.82
2019-02-22T10:34:18.365Z,6.06
2019-02-22T10:39:43.390Z,6.89
2019-02-22T10:45:08.226Z,7.40
2019-02-22T10:50:32.185Z,7.06
2019-02-22T10:55:56.053Z,7.72
2019-02-22T11:01:20.393Z,6.60
2019-02-22T11:06:44.748Z,7.28
2019-02-22T11:12:08.615Z,7.17
2019-02-22T11:17:32.465Z,7.96
2019-02-22T11:22:56.797Z,7.61
2019-02-22T11:28:20.569Z,8.90
2019-02-22T11:33:45.488Z,8.13
2019-02-22T11:39:10.402Z,6.70
2019-02-22T11:44:40.287Z,7.04
2019-02-22T11:50:01.120Z,6.39
2019-02-22T11:55:26.693Z,6.65
2019-02-22T12:00:51.010Z,7.42
2019-02-22T12:06:15.310Z,6.98
2019-02-22T12:11:40.248Z,6.93
2019-02-22T12:17:04.104Z,7.15
2019-02-22T12:22:28.702Z,7.78
2019-02-22T12:27:52.576Z,7.74
2019-02-22T12:33:17.384Z,8.45
2019-02-22T12:38:41.853Z,8.89
2019-02-22T12:44:06.337Z,9.76
2019-02-22T12:49:30.053Z,10.31
2019-02-22T12:54:54.725Z,10.13
2019-02-22T13:00:18.818Z,9.56
2019-02-22T13:05:43.523Z,8.23
2019-02-22T13:11:07.876Z,8.00
2019-02-22T13:16:32.559Z,7.97
2019-02-22T13:21:56.638Z,8.56
2019-02-22T13:27:21.837Z,9.42
2019-02-22T13:32:45.562Z,9.25
2019-02-22T13:38:09.981Z,8.63
2019-02-22T13:43:34.893Z,10.08
2019-02-22T13:48:59.403Z,9.79
2019-02-22T13:54:24.052Z,9.03
2019-02-22T13:59:48.645Z,8.00
2019-02-22T14:05:13.418Z,8.26
2019-02-22T14:10:38.432Z,9.00
2019-02-22T14:16:02.864Z,9.49
2019-02-22T14:21:26.409Z,8.83
2019-02-22T14:26:50.848Z,7.98
2019-02-22T14:32:15.633Z,7.81
2019-02-22T14:37:39.820Z,7.61
2019-02-22T14:43:03.601Z,8.02
2019-02-22T14:48:28.092Z,7.57
2019-02-22T14:53:52.335Z,8.14
2019-02-22T14:59:16.210Z,7.39
2019-02-22T15:04:40.542Z,7.27
2019-02-22T15:10:06.097Z,7.54
2019-02-22T15:16:00.291Z,7.79
2019-02-22T15:21:18.028Z,7.48
2019-02-22T15:26:42.620Z,7.56
2019-02-22T15:32:07.403Z,7.77
2019-02-22T15:37:32.036Z,8.16
2019-02-22T15:42:55.694Z,7.68
2019-02-22T15:48:20.005Z,6.84
2019-02-22T15:53:44.106Z,6.18
2019-02-22T15:59:08.558Z,5.48
2019-02-22T16:04:38.591Z,4.89
2019-02-22T16:10:02.640Z,4.42
2019-02-22T16:15:28.393Z,4.08
2019-02-22T16:20:53.585Z,3.59
2019-02-22T16:26:21.429Z,3.20
2019-02-22T16:31:45.390Z,2.71
2019-02-22T16:37:09.346Z,2.30
2019-02-22T16:42:32.929Z,1.95
2019-02-22T16:47:57.800Z,1.68
2019-02-22T16:53:21.805Z,1.55
2019-02-22T16:58:45.441Z,1.38
2019-02-22T17:04:10.171Z,1.23
2019-02-22T17:09:34.531Z,1.06
2019-02-22T17:14:59.142Z,1.04
2019-02-22T17:20:22.834Z,1.00
2019-02-22T17:25:47.566Z,0.97
2019-02-22T17:31:12.384Z,0.80
2019-02-22T17:36:36.904Z,0.61
2019-02-22T17:42:00.562Z,0.43
2019-02-22T17:47:24.935Z,0.33
2019-02-22T17:52:49.500Z,0.38
2019-02-22T17:58:24.031Z,0.26
2019-02-22T18:03:40.055Z,0.03
2019-02-22T18:09:06.066Z,-0.21
2019-02-22T18:14:30.468Z,-0.24
2019-02-22T18:19:54.383Z,-0.07
2019-02-22T18:25:19.772Z,-0.02
2019-02-22T18:30:44.270Z,0.03
2019-02-22T18:36:15.039Z,-0.11
2019-02-22T18:41:38.430Z,-0.45
2019-02-22T18:47:02.272Z,-0.62
2019-02-22T18:58:41.729Z,-0.79
2019-02-22T19:04:08.857Z,-1.13
2019-02-22T19:09:41.824Z,-1.39
2019-02-22T19:15:08.853Z,-1.34
2019-02-22T19:20:33.460Z,-1.32
2019-02-22T19:26:08.105Z,-1.38
2019-02-22T19:31:34.982Z,-1.37
2019-02-22T19:36:58.721Z,-1.34
2019-02-22T19:42:22.971Z,-1.36
2019-02-22T19:47:46.915Z,-1.38
2019-02-22T19:53:11.890Z,-1.60
2019-02-22T19:58:36.450Z,-1.71
2019-02-22T20:04:02.446Z,-1.86
2019-02-22T20:09:26.321Z,-1.88
2019-02-22T20:14:50.563Z,-1.83
2019-02-22T20:20:15.690Z,-1.77
2019-02-22T20:25:40.420Z,-1.83
2019-02-22T20:31:05.444Z,-1.72
2019-02-22T20:36:29.369Z,-1.70
2019-02-22T20:41:53.754Z,-1.75
2019-02-22T20:47:17.176Z,-1.76
2019-02-22T20:52:41.960Z,-1.76
2019-02-22T20:58:05.927Z,-1.72
2019-02-22T21:03:30.646Z,-1.76
2019-02-22T21:08:55.380Z,-1.61
2019-02-22T21:14:19.454Z,-1.69
2019-02-22T21:19:44.086Z,-1.77
2019-02-22T21:25:08.616Z,-1.82
2019-02-22T21:30:32.990Z,-1.87
2019-02-22T21:35:58.022Z,-2.01
2019-02-22T21:41:24.620Z,-2.00
2019-02-22T21:46:49.458Z,-2.02
2019-02-22T21:52:14.907Z,-1.98
2019-02-22T21:57:39.523Z,-2.14
2019-02-22T22:03:06.347Z,-2.16
2019-02-22T22:08:30.041Z,-2.21
2019-02-22T22:13:53.975Z,-2.24
2019-02-22T22:19:17.815Z,-2.41
2019-02-22T22:24:42.215Z,-2.41
2019-02-22T22:30:07.455Z,-2.63
2019-02-22T22:35:32.468Z,-2.67
2019-02-22T22:40:56.787Z,-2.63
2019-02-22T22:46:21.411Z,-2.81
2019-02-22T22:51:45.939Z,-2.73
2019-02-22T22:57:10.598Z,-2.83
2019-02-22T23:02:35.266Z,-2.75
2019-02-22T23:07:59.970Z,-2.76
2019-02-22T23:13:24.619Z,-2.71
2019-02-22T23:18:49.171Z,-2.78
2019-02-22T23:24:14.004Z,-2.70
2019-02-22T23:29:37.594Z,-2.61
2019-02-22T23:35:01.424Z,-2.60
2019-02-22T23:40:26.112Z,-2.72
2019-02-22T23:45:50.044Z,-2.76
2019-02-22T23:51:14.427Z,-2.80
2019-02-22T23:56:38.414Z,-2.93
